Latest Coastal Weather Observations for Bunbury

IDW60701

Issued at 11:23 am WST Tuesday 27 June 2017 (issued every 10 minutes, with the page automatically refreshed every 10 minutes)

About coastal observations | Map of coastal stations | Coastal observations for WA | Marine services | Other Formats
Station Details ID: 009965 Name: BUNBURY Lat: -33.36 Lon: 115.64 Height: 5.2 m
Data from the previous 72 hours. | See also: Recent months at Bunbury
Date/Time
WST
Temp
°C
Wind Pressure Rain since
9am
mm
Weather Cloud Vis
km
Sea
Height
m
Swell
Dir  Spd
kts
Gust
kts
hPa Trend Height
m
Period
s
Dir
27/11:00am 15.3 SSE 5 8 1029.8 - 0.0 - - - - - - -
27/10:30am 14.2 SSW 4 6 1029.9 - 0.0 - - - - - - -
27/10:00am 12.8 SW 2 5 1030.0 - 0.0 - - - - - - -
27/09:30am 11.2 ESE 1 2 1029.9 - 0.0 - - - - - - -
27/09:00am 9.6 ESE 1 2 1029.8 - 0.0 - - - - - - -
27/08:30am 8.3 W 1 1 1029.7 - 0.0 - - - - - - -
27/08:00am 5.4 SSW 1 3 1029.2 - 0.0 - - - - - - -
27/07:30am 5.4 CALM 0 0 1029.0 - 0.0 - - - - - - -
27/07:00am 6.0 E 1 1 1028.6 - 0.0 - - - - - - -
27/06:30am 4.9 CALM 0 0 1028.4 - 0.0 - - - - - - -
27/06:00am 5.5 CALM 0 0 1028.0 - 0.0 - - - - - - -
27/05:30am 6.3 CALM 0 0 1027.8 - 0.0 - - - - - - -
27/05:00am 6.5 CALM 0 0 1027.5 - 0.0 - - - - - - -
27/04:30am 7.4 E 1 3 1027.2 - 0.0 - - - - - - -
27/04:00am 6.8 CALM 0 0 1027.4 - 0.0 - - - - - - -
27/03:30am 7.4 ESE 1 3 1027.3 - 0.0 - - - - - - -
27/03:00am 7.5 CALM 0 0 1027.3 - 0.0 - - - - - - -
27/02:30am 7.7 ESE 1 2 1027.2 - 0.0 - - - - - - -
27/02:00am 8.2 ESE 3 6 1027.4 - 0.0 - - - - - - -
27/01:30am 7.0 CALM 0 0 1027.3 - 0.0 - - - - - - -
27/01:00am 6.6 CALM 0 0 1027.3 - 0.0 - - - - - - -
27/12:30am 6.7 CALM 0 0 1027.4 - 0.0 - - - - - - -
27/12:00am 6.7 CALM 0 0 1027.5 - 0.0 - - - - - - -
 
Date/Time
WST
Temp
°C
Wind Pressure Rain since
9am
mm
Weather Cloud Vis
km
Sea
Height
m
Swell
Dir  Spd
kts
Gust
kts
hPa Trend Height
m
Period
s
Dir
26/11:30pm 8.0 CALM 0 0 1027.7 - 0.0 - - - - - - -
26/11:00pm 8.9 CALM 0 0 1027.8 - 0.0 - - - - - - -
26/10:30pm 9.6 ESE 2 3 1028.0 - 0.0 - - - - - - -
26/10:00pm 9.5 SE 1 2 1027.9 - 0.0 - - - - - - -
26/09:30pm 9.4 S 1 2 1027.9 - 0.0 - - - - - - -
26/09:00pm 10.3 S 2 3 1027.9 - 0.0 - - - - - - -
26/08:30pm 11.8 SSW 2 4 1027.9 - 0.0 - - - - - - -
26/08:00pm 11.8 SSW 3 6 1027.8 - 0.0 - - - - - - -
26/07:30pm 11.9 S 3 5 1027.8 - 0.0 - - - - - - -
26/07:00pm 12.7 S 5 7 1027.8 - 0.0 - - - - - - -
26/06:30pm 12.7 SSW 6 8 1027.6 - 0.0 - - - - - - -
26/06:00pm 13.1 SSW 6 8 1027.2 - 0.0 - - - - - - -
26/05:30pm 13.5 SSW 5 7 1027.0 - 0.0 - - - - - - -
26/05:00pm 14.2 SSW 8 12 1026.7 - 0.0 - - - - - - -
26/04:30pm 15.5 SW 8 12 1026.5 - 0.0 - - - - - - -
26/04:00pm 16.6 SW 10 14 1026.4 - 0.0 - - - - - - -
26/03:30pm 16.7 WSW 6 10 1026.5 - 0.0 - - - - - - -
26/03:00pm 17.0 WSW 7 9 1026.4 - 0.0 - - - - - - -
26/02:30pm 16.7 WSW 7 13 1026.4 - 0.0 - - - - - - -
26/02:00pm 17.1 WSW 5 8 1026.4 - 0.0 - - - - - - -
26/01:30pm 16.7 W 5 8 1026.7 - 0.0 - - - - - - -
26/01:00pm 17.0 WSW 6 9 1027.1 - 0.0 - - - - - - -
26/12:30pm 16.4 SW 6 10 1027.5 - 0.0 - - - - - - -
26/12:00pm 16.6 WSW 3 5 1027.8 - 0.0 - - - - - - -
26/11:30am 16.2 WNW 4 6 1028.4 - 0.0 - - - - - - -
26/11:00am 15.6 W 4 6 1028.7 - 0.0 - - - - - - -
26/10:30am 15.5 WSW 1 4 1028.9 - 0.0 - - - - - - -
26/10:00am 14.6 ENE 2 3 1029.0 - 0.0 - - - - - - -
26/09:30am 13.2 ENE 2 3 1028.8 - 0.0 - - - - - - -
26/09:00am 11.1 SE 1 2 1028.7 - 0.0 - - - - - - -
26/08:30am 9.3 CALM 0 1 1028.5 - 0.0 - - - - - - -
26/08:00am 8.9 CALM 0 1 1028.5 - 0.0 - - - - - - -
26/07:30am 9.1 ESE 1 2 1028.4 - 0.0 - - - - - - -
26/07:00am 9.1 ESE 1 3 1028.0 - 0.0 - - - - - - -
26/06:30am 9.3 CALM 0 3 1027.9 - 0.0 - - - - - - -
26/06:00am 9.5 SE 1 2 1027.7 - 0.0 - - - - - - -
26/05:30am 9.6 ESE 2 3 1027.6 - 0.0 - - - - - - -
26/05:00am 9.7 S 1 2 1027.7 - 0.0 - - - - - - -
26/04:30am 9.8 S 3 4 1027.8 - 0.0 - - - - - - -
26/04:00am 9.8 S 2 4 1027.7 - 0.0 - - - - - - -
26/03:30am 9.7 S 3 5 1027.6 - 0.0 - - - - - - -
26/03:00am 9.5 CALM 0 0 1027.7 - 0.0 - - - - - - -
26/02:30am 9.7 SSW 1 3 1027.9 - 0.0 - - - - - - -
26/02:00am 9.7 CALM 0 0 1028.1 - 0.0 - - - - - - -
26/01:30am 9.7 S 3 4 1027.8 - 0.0 - - - - - - -
26/01:00am 9.6 S 2 4 1027.9 - 0.0 - - - - - - -
26/12:30am 9.1 CALM 0 0 1028.0 - 0.0 - - - - - - -
26/12:00am 9.3 SSW 3 5 1028.0 - 0.0 - - - - - - -
 
Date/Time
WST
Temp
°C
Wind Pressure Rain since
9am
mm
Weather Cloud Vis
km
Sea
Height
m
Swell
Dir  Spd
kts
Gust
kts
hPa Trend Height
m
Period
s
Dir
25/11:30pm 9.4 CALM 0 1 1027.9 - 0.0 - - - - - - -
25/11:00pm 10.4 SSE 3 4 1028.2 - 0.0 - - - - - - -
25/10:30pm 11.5 SE 3 4 1028.1 - 0.0 - - - - - - -
25/10:00pm 11.8 ESE 4 5 1028.1 - 0.0 - - - - - - -
25/09:30pm 12.2 SE 5 8 1028.1 - 0.0 - - - - - - -
25/09:00pm 12.3 SSE 5 7 1028.2 - 0.0 - - - - - - -
25/08:30pm 12.7 SSE 5 7 1028.2 - 0.0 - - - - - - -
25/08:00pm 12.7 SSE 6 9 1028.0 - 0.0 - - - - - - -
25/07:30pm 12.3 SSE 5 8 1027.8 - 0.0 - - - - - - -
25/07:00pm 12.4 S 5 7 1027.9 - 0.0 - - - - - - -
25/06:30pm 13.1 SSW 4 7 1027.9 - 0.0 - - - - - - -
25/06:00pm 13.3 SSW 3 3 1027.8 - 0.0 - - - - - - -
25/05:30pm 13.8 SW 3 4 1027.6 - 0.0 - - - - - - -
25/05:00pm 14.1 SW 1 2 1027.5 - 0.0 - - - - - - -
25/04:30pm 14.4 SSW 2 4 1027.5 - 0.0 - - - - - - -
25/04:00pm 14.5 SW 3 4 1027.5 - 0.0 - - - - - - -
25/03:30pm 14.8 S 2 4 1027.4 - 0.0 - - - - - - -
25/03:00pm 14.9 SSE 2 3 1027.2 - 0.0 - - - - - - -
25/02:30pm 14.9 SE 3 5 1027.2 - 0.0 - - - - - - -
25/02:00pm 15.1 SE 4 6 1027.2 - 0.0 - - - - - - -
25/01:30pm 15.3 ESE 4 6 1027.3 - 0.0 - - - - - - -
25/01:00pm 15.7 ESE 5 8 1027.5 - 0.0 - - - - - - -
25/12:30pm 15.6 S 5 9 1028.0 - 0.0 - - - - - - -
25/12:00pm 15.5 SE 4 11 1028.5 - 0.0 - - - - - - -
25/11:30am 14.8 SE 3 7 1028.8 - 0.0 - - - - - - -
25/11:00am 14.5 ESE 1 4 1029.2 - 0.0 - - - - - - -
25/10:30am 13.2 SE 4 5 1029.6 - 0.0 - - - - - - -
25/10:00am 12.2 SSE 3 5 1029.8 - 0.0 - - - - - - -
25/09:30am 11.2 SE 3 6 1029.9 - 0.0 - - - - - - -
25/09:00am 9.8 S 1 3 1029.6 - 0.0 - - - - - - -
25/08:30am 8.4 S 4 5 1029.5 - 0.0 - - - - - - -
25/08:00am 7.1 S 4 5 1029.2 - 0.0 - - - - - - -
25/07:30am 6.0 S 5 7 1029.1 - 0.0 - - - - - - -
25/07:00am 4.3 E 2 3 1028.5 - 0.0 - - - - - - -
25/06:30am 4.4 ESE 1 3 1028.3 - 0.0 - - - - - - -
25/06:00am 4.8 SSW 3 4 1028.4 - 0.0 - - - - - - -
25/05:30am 4.1 SSW 4 5 1028.3 - 0.0 - - - - - - -
25/05:00am 4.8 SSW 2 3 1028.1 - 0.0 - - - - - - -
25/04:30am 4.5 S 2 2 1028.1 - 0.0 - - - - - - -
25/04:00am 6.1 SE 4 6 1028.2 - 0.0 - - - - - - -
25/03:30am 5.3 SE 4 5 1028.1 - 0.0 - - - - - - -
25/03:00am 6.2 NE 3 4 1028.1 - 0.0 - - - - - - -
25/02:30am 7.1 SE 4 5 1028.5 - 0.0 - - - - - - -
25/02:00am 8.4 SE 6 9 1028.6 - 0.0 - - - - - - -
25/01:30am 8.1 SSE 6 8 1028.6 - 0.0 - - - - - - -
25/01:00am 8.6 SSE 6 10 1028.6 - 0.0 - - - - - - -
25/12:30am 8.4 SSE 5 7 1028.5 - 0.0 - - - - - - -
25/12:00am 8.0 S 3 4 1028.4 - 0.0 - - - - - - -
 
Date/Time
WST
Temp
°C
Wind Pressure Rain since
9am
mm
Weather Cloud Vis
km
Sea
Height
m
Swell
Dir  Spd
kts
Gust
kts
hPa Trend Height
m
Period
s
Dir
24/11:30pm 7.7 S 3 4 1028.5 - 0.0 - - - - - - -
24/11:00pm 9.3 SSE 4 5 1028.4 - 0.0 - - - - - - -
24/10:30pm 9.6 SSE 5 6 1028.3 - 0.0 - - - - - - -
24/10:00pm 9.6 SSE 5 7 1028.2 - 0.0 - - - - - - -
24/09:30pm 9.8 SSE 5 6 1028.0 - 0.0 - - - - - - -
24/09:00pm 10.2 SSE 4 6 1027.8 - 0.0 - - - - - - -
24/08:30pm 10.9 SSE 5 7 1027.6 - 0.0 - - - - - - -
24/08:00pm 11.3 SSE 5 7 1027.3 - 0.0 - - - - - - -
24/07:30pm 11.7 S 5 8 1027.0 - 0.0 - - - - - - -
24/07:00pm 11.8 S 5 7 1026.8 - 0.0 - - - - - - -
24/06:30pm 11.1 SSW 4 5 1026.5 - 0.0 - - - - - - -
24/06:00pm 11.5 S 2 3 1026.1 - 0.0 - - - - - - -
24/05:30pm 13.4 SSE 3 4 1025.8 - 0.0 - - - - - - -
24/05:00pm 14.7 SSE 5 7 1025.6 - 0.0 - - - - - - -
24/04:30pm 16.1 SE 8 13 1025.4 - 0.0 - - - - - - -
24/04:00pm 16.6 SSE 8 13 1025.3 - 0.0 - - - - - - -
24/03:30pm 16.9 SE 10 15 1025.2 - 0.0 - - - - - - -
24/03:00pm 16.6 SE 10 15 1025.2 - 0.0 - - - - - - -
24/02:30pm 17.3 SSE 10 16 1025.3 - 0.0 - - - - - - -
24/02:00pm 17.2 SE 10 15 1025.2 - 0.0 - - - - - - -
24/01:30pm 16.9 SE 10 13 1025.6 - 0.0 - - - - - - -
24/01:00pm 16.8 SE 10 13 1026.0 - 0.0 - - - - - - -
24/12:30pm 16.6 ESE 10 15 1026.4 - 0.0 - - - - - - -
24/12:00pm 16.2 SE 10 13 1026.8 - 0.0 - - - - - - -
24/11:30am 15.1 SE 9 12 1027.4 - 0.0 - - - - - - -

Other Formats:

Comma delimited format used in spreadsheet applications
http://www.bom.gov.au/fwo/IDW60701/IDW60701.94604.axf

JavaScript Object Notation format (JSON) in row-major order
http://www.bom.gov.au/fwo/IDW60701/IDW60701.94604.json